Terminal Aerodrome Forecast
Issued by NWS

Home | Current Version | Previous Version | Text Only | Print | Product List | Glossary On
Versions: 1 2 3 4 5 6 7 8 9 10 11 12 13 14 15 16 17 18 19 20 21 22
646
FTUS46 KPDT 241535 AAC
TAFDLS
TAF AMD
KDLS 241535Z 2416/2512 33009KT P6SM -RA OVC014
      TEMPO 2416/2418 5SM -RA BR SCT014 OVC035
     FM241800 32005KT P6SM -SHRA BKN040 OVC100
     FM242200 30009KT P6SM VCSH SCT045 BKN110
     FM250600 VRB05KT P6SM OVC050=

USA.gov is the U.S. government's official web portal to all federal, state and local government web resources and services.